Time;durP1;ratioP1;P1;durP2;ratioP2;P2;SDS_P1;SDS_P2;PMS_P1;PMS_P2;Temp;Humidity;BMP_temperature;BMP_pressure;BME280_temperature;BME280_humidity;BME280_pressure;Samples;Min_cycle;Max_cycle;Signal;HPM_P1;HPM_P2
2022/04/20 05:01:23;;;;;;;6.53;2.95;;;5.70;97.80;;;;;;5665528;23;20037;-94
2022/04/20 05:03:53;;;;;;;5.82;3.00;;;5.80;97.60;;;;;;5014173;28;20052;-95
2022/04/20 05:06:21;;;;;;;5.00;3.08;;;5.50;97.90;;;;;;5013480;28;20038;-96
2022/04/20 05:08:49;;;;;;;5.40;2.70;;;5.70;97.60;;;;;;5007765;28;20054;-94
2022/04/20 05:11:16;;;;;;;4.82;2.72;;;5.80;97.20;;;;;;5008855;28;20050;-96
2022/04/20 05:13:48;;;;;;;6.38;2.95;;;6.00;97.10;;;;;;5028386;28;20042;-95
2022/04/20 05:16:19;;;;;;;5.70;3.50;;;5.70;97.30;;;;;;5027285;28;20042;-96
2022/04/20 05:19:14;;;;;;;4.75;3.05;;;5.70;97.20;;;;;;5009528;28;20105;-96
2022/04/20 05:21:44;;;;;;;5.22;2.92;;;5.90;96.50;;;;;;5011801;28;20050;-94
2022/04/20 05:44:52;;;;;;;5.20;3.17;;;6.20;96.20;;;;;;5012847;28;20069;-94
2022/04/20 05:47:24;;;;;;;5.55;3.50;;;6.20;96.30;;;;;;5018597;28;20098;-93
2022/04/20 05:50:03;;;;;;;4.60;2.95;;;6.10;96.10;;;;;;5002414;28;20038;-93
2022/04/20 05:52:35;;;;;;;6.00;2.92;;;6.30;96.10;;;;;;5024977;28;20060;-94
2022/04/20 05:55:07;;;;;;;5.53;3.33;;;6.40;95.80;;;;;;5038257;28;20018;-94
2022/04/20 05:57:51;;;;;;;6.30;3.28;;;6.40;95.50;;;;;;5028870;28;20471;-95
2022/04/20 06:03:01;;;;;;;5.07;3.30;;;6.20;95.50;;;;;;5030785;28;20053;-95
2022/04/20 06:05:33;;;;;;;5.75;3.78;;;6.30;95.60;;;;;;5034598;28;20050;-94
2022/04/20 06:08:05;;;;;;;5.32;3.17;;;6.20;95.60;;;;;;5038060;28;20042;-94
2022/04/20 06:10:39;;;;;;;6.55;3.58;;;6.40;95.10;;;;;;5035217;28;20060;-94
2022/04/20 06:13:19;;;;;;;5.45;3.20;;;6.40;94.90;;;;;;5036130;28;20077;-94
2022/04/20 06:15:48;;;;;;;6.10;2.95;;;6.60;94.90;;;;;;5017660;28;20057;-94
2022/04/20 06:18:16;;;;;;;5.50;3.22;;;6.70;94.70;;;;;;5018676;28;20076;-95
2022/04/20 06:20:46;;;;;;;5.30;3.08;;;6.60;94.90;;;;;;5019837;28;20030;-95
2022/04/20 06:23:14;;;;;;;5.78;3.30;;;6.80;94.60;;;;;;5034375;28;20053;-94
2022/04/20 06:25:53;;;;;;;5.68;3.15;;;6.90;94.40;;;;;;5032478;28;20057;-93
2022/04/20 06:28:29;;;;;;;6.53;3.30;;;6.90;94.10;;;;;;5017663;28;20137;-95
2022/04/20 06:30:58;;;;;;;5.40;3.45;;;7.10;94.30;;;;;;4991595;28;20106;-94
2022/04/20 06:33:29;;;;;;;6.60;3.47;;;7.10;93.70;;;;;;5004821;28;20058;-94
2022/04/20 06:36:43;;;;;;;5.57;3.28;;;7.30;93.40;;;;;;5011514;28;20053;-93
2022/04/20 06:42:12;;;;;;;5.13;2.70;;;7.40;92.40;;;;;;5005927;28;20050;-94
2022/04/20 06:47:32;;;;;;;4.15;2.60;;;7.40;92.30;;;;;;5013840;28;20046;-94
2022/04/20 06:50:01;;;;;;;5.32;2.83;;;7.50;91.40;;;;;;5029906;28;20113;-93
2022/04/20 07:01:48;;;;;;;4.20;2.70;;;7.80;91.00;;;;;;4956983;28;20441;-93
2022/04/20 07:04:16;;;;;;;4.30;2.53;;;8.00;90.90;;;;;;4955184;29;20119;-93
2022/04/20 07:06:43;;;;;;;5.65;2.70;;;8.10;90.50;;;;;;4956029;29;20052;-94
2022/04/20 07:09:12;;;;;;;4.55;2.65;;;8.10;90.00;;;;;;4937145;29;20052;-93
2022/04/20 07:11:40;;;;;;;4.88;3.30;;;8.20;88.90;;;;;;4941143;29;20047;-93
2022/04/20 07:14:11;;;;;;;4.68;3.00;;;8.10;88.60;;;;;;4938923;29;20557;-92
2022/04/20 07:16:41;;;;;;;4.22;2.63;;;8.20;87.60;;;;;;4923288;29;20103;-92
2022/04/20 07:21:43;;;;;;;4.50;2.92;;;8.10;88.40;;;;;;4976979;28;20070;-92
2022/04/20 07:26:58;;;;;;;5.72;3.42;;;8.10;87.80;;;;;;4966555;29;20090;-93
2022/04/20 07:29:40;;;;;;;5.05;2.83;;;8.30;86.50;;;;;;4969908;28;20100;-94
2022/04/20 07:32:13;;;;;;;5.18;2.92;;;8.40;87.50;;;;;;4963909;29;20102;-93
2022/04/20 07:37:37;;;;;;;4.85;2.80;;;8.50;87.10;;;;;;4971337;28;20054;-93
2022/04/20 07:48:36;;;;;;;4.88;2.85;;;8.70;82.70;;;;;;4971299;29;20045;-92
2022/04/20 07:51:03;;;;;;;5.30;3.17;;;8.80;83.20;;;;;;4945085;29;20058;-90
2022/04/20 07:59:33;;;;;;;5.30;3.10;;;8.70;82.70;;;;;;5273730;23;20061;-77
2022/04/20 08:02:00;;;;;;;6.55;3.47;;;8.90;81.70;;;;;;4995257;28;20046;-77
2022/04/20 08:04:27;;;;;;;5.65;3.30;;;8.90;80.30;;;;;;4973807;28;20153;-78
2022/04/20 08:06:54;;;;;;;5.07;2.70;;;8.90;80.50;;;;;;4973635;28;20141;-79
2022/04/20 08:09:24;;;;;;;4.82;2.90;;;8.80;81.90;;;;;;4972856;28;20058;-78
2022/04/20 08:11:51;;;;;;;5.30;3.28;;;8.80;82.10;;;;;;4973227;28;20054;-78
2022/04/20 08:14:20;;;;;;;4.20;2.75;;;9.00;82.30;;;;;;4973147;28;20416;-78
2022/04/20 08:16:47;;;;;;;5.57;3.08;;;9.00;79.60;;;;;;4984664;28;20393;-78
2022/04/20 08:19:14;;;;;;;4.15;2.67;;;9.10;80.60;;;;;;4992704;28;20129;-79
2022/04/20 08:21:41;;;;;;;4.90;2.92;;;9.20;79.90;;;;;;4992328;28;20064;-78
2022/04/20 08:24:08;;;;;;;5.63;3.00;;;9.30;79.10;;;;;;4992117;28;20487;-79
2022/04/20 08:26:37;;;;;;;4.90;2.92;;;9.20;78.10;;;;;;4992390;28;20161;-79
2022/04/20 08:29:09;;;;;;;4.20;2.40;;;9.30;78.50;;;;;;4991894;28;20052;-79
2022/04/20 08:31:36;;;;;;;4.88;2.60;;;9.50;78.50;;;;;;4992535;28;20050;-78
2022/04/20 08:34:03;;;;;;;5.38;3.10;;;9.50;77.30;;;;;;4992380;28;20053;-79
2022/04/20 08:36:31;;;;;;;5.03;3.25;;;9.50;75.70;;;;;;4992194;28;20054;-79
2022/04/20 08:38:58;;;;;;;4.93;2.78;;;9.50;75.80;;;;;;4991918;28;20046;-79
2022/04/20 08:41:28;;;;;;;4.40;2.90;;;9.50;77.30;;;;;;4991595;28;20050;-79
2022/04/20 08:43:57;;;;;;;6.63;3.30;;;9.50;75.10;;;;;;4992163;28;20336;-79
2022/04/20 08:46:25;;;;;;;4.80;2.90;;;9.50;75.00;;;;;;4991788;28;20050;-79
2022/04/20 08:48:53;;;;;;;7.05;2.88;;;9.50;76.10;;;;;;4991911;28;20057;-79
2022/04/20 08:51:20;;;;;;;6.07;3.10;;;9.50;73.60;;;;;;4991625;28;20061;-79
2022/04/20 08:53:47;;;;;;;7.88;3.30;;;9.60;75.00;;;;;;4991387;28;20050;-79
2022/04/20 08:58:58;;;;;;;5.03;3.10;;;9.60;75.90;;;;;;4946580;28;20065;-79
2022/04/20 09:01:28;;;;;;;6.07;3.30;;;9.70;77.10;;;;;;4992040;28;20097;-78
2022/04/20 09:03:56;;;;;;;6.53;3.42;;;9.70;76.70;;;;;;4991505;28;20492;-79
2022/04/20 09:06:23;;;;;;;5.18;3.17;;;9.60;76.40;;;;;;4991380;28;20042;-78
2022/04/20 09:08:53;;;;;;;6.68;3.03;;;9.80;77.10;;;;;;4991301;28;20086;-78
2022/04/20 09:11:21;;;;;;;4.32;3.00;;;9.90;74.30;;;;;;4991954;28;20047;-79
2022/04/20 09:13:48;;;;;;;6.00;3.75;;;10.00;75.90;;;;;;4991126;28;20077;-79
2022/04/20 09:16:17;;;;;;;5.75;3.42;;;9.80;74.70;;;;;;4990783;28;20077;-79
2022/04/20 09:18:44;;;;;;;8.10;3.80;;;9.80;75.90;;;;;;4991338;28;20060;-79
2022/04/20 09:21:15;;;;;;;5.97;3.25;;;9.90;76.00;;;;;;4990677;28;20133;-78
2022/04/20 09:23:42;;;;;;;5.78;3.30;;;9.90;75.90;;;;;;4991423;28;20129;-79
2022/04/20 09:26:11;;;;;;;5.25;3.58;;;9.90;75.60;;;;;;4991435;28;20057;-79
2022/04/20 09:28:42;;;;;;;5.18;3.40;;;10.00;76.20;;;;;;4991227;28;20081;-79
2022/04/20 09:31:11;;;;;;;7.82;4.32;;;10.20;76.50;;;;;;4991124;28;20455;-79
2022/04/20 09:33:50;;;;;;;6.32;3.55;;;10.10;74.70;;;;;;4990999;28;20046;-80
2022/04/20 09:36:45;;;;;;;5.65;3.75;;;10.00;74.70;;;;;;4991256;28;20054;-80
2022/04/20 09:39:14;;;;;;;4.93;3.05;;;10.10;75.50;;;;;;4991008;28;20510;-79
2022/04/20 09:41:58;;;;;;;5.22;3.40;;;10.30;75.60;;;;;;4973141;28;20386;-79
2022/04/20 09:44:27;;;;;;;4.18;2.85;;;10.30;74.70;;;;;;4991358;28;20093;-79
2022/04/20 09:49:55;;;;;;;4.95;3.08;;;10.40;73.90;;;;;;4990962;28;20635;-80
2022/04/20 09:52:23;;;;;;;5.40;3.08;;;10.40;72.10;;;;;;4991111;28;20054;-80
2022/04/20 09:54:53;;;;;;;4.78;3.20;;;10.50;73.40;;;;;;4990725;28;20406;-78
2022/04/20 09:57:22;;;;;;;6.65;3.78;;;10.50;71.40;;;;;;4988962;28;20113;-79
2022/04/20 10:00:01;;;;;;;5.65;3.40;;;10.50;70.20;;;;;;4990558;28;20054;-79
2022/04/20 10:02:29;;;;;;;5.82;3.65;;;10.50;70.70;;;;;;4971385;28;20141;-79
2022/04/20 10:04:58;;;;;;;4.93;3.00;;;10.40;70.10;;;;;;4971087;28;20073;-79
2022/04/20 10:07:25;;;;;;;5.00;2.92;;;10.50;70.20;;;;;;4971553;28;20051;-79
2022/04/20 10:09:53;;;;;;;5.15;3.47;;;10.60;69.60;;;;;;4974272;28;20133;-79
2022/04/20 10:12:20;;;;;;;5.72;3.30;;;10.70;69.60;;;;;;4990821;28;20046;-79
2022/04/20 10:17:44;;;;;;;5.00;2.90;;;10.90;68.30;;;;;;4989893;28;20068;-79
2022/04/20 10:20:14;;;;;;;4.57;2.72;;;10.90;66.10;;;;;;4990601;28;20053;-79
2022/04/20 10:22:42;;;;;;;5.20;2.67;;;10.90;66.20;;;;;;4990761;28;20070;-79
2022/04/20 10:25:12;;;;;;;5.00;2.80;;;10.90;66.50;;;;;;4990547;28;20042;-79
2022/04/20 10:28:04;;;;;;;5.20;3.17;;;11.00;64.90;;;;;;4990799;28;20216;-79
2022/04/20 10:30:44;;;;;;;4.43;2.60;;;11.00;63.10;;;;;;4990649;28;20065;-79
2022/04/20 10:33:16;;;;;;;5.55;2.80;;;11.00;62.30;;;;;;4992089;28;20042;-79
2022/04/20 10:35:59;;;;;;;4.50;2.80;;;11.10;64.20;;;;;;4994359;28;20081;-79
2022/04/20 10:38:27;;;;;;;4.40;2.65;;;11.20;63.30;;;;;;4994278;28;20089;-79
2022/04/20 10:41:07;;;;;;;4.80;2.80;;;11.30;63.90;;;;;;4994304;28;20100;-79
2022/04/20 10:43:38;;;;;;;4.75;2.80;;;11.30;63.00;;;;;;4994538;28;20050;-79
2022/04/20 10:46:14;;;;;;;5.25;2.60;;;11.40;63.30;;;;;;4994245;28;20050;-79
2022/04/20 10:48:51;;;;;;;4.80;2.90;;;11.40;62.90;;;;;;4994379;28;20421;-79
2022/04/20 10:51:22;;;;;;;6.60;2.65;;;11.60;63.30;;;;;;4994328;28;20054;-80
2022/04/20 10:53:51;;;;;;;4.72;2.63;;;11.70;62.30;;;;;;4993723;28;20377;-79
2022/04/20 10:56:20;;;;;;;5.60;3.25;;;11.70;62.60;;;;;;4994011;28;20057;-79
2022/04/20 10:59:08;;;;;;;12.93;7.35;;;11.70;61.60;;;;;;4991646;28;20105;-79
2022/04/20 11:02:09;;;;;;;7.38;3.85;;;11.80;61.40;;;;;;4993876;28;20054;-80
2022/04/20 11:04:41;;;;;;;6.85;3.03;;;11.80;61.80;;;;;;4993244;28;20135;-79
2022/04/20 11:07:30;;;;;;;4.47;2.63;;;11.70;60.30;;;;;;4993720;28;20051;-79
2022/04/20 11:10:05;;;;;;;5.13;2.80;;;11.90;60.30;;;;;;4993416;28;20054;-79
2022/04/20 11:18:43;;;;;;;3.75;2.13;;;12.10;58.40;;;;;;4993605;28;20112;-79
2022/04/20 11:21:17;;;;;;;3.50;2.15;;;12.20;58.10;;;;;;4993571;28;20143;-79
2022/04/20 11:23:58;;;;;;;4.23;2.50;;;12.20;59.10;;;;;;4993683;28;20046;-79
2022/04/20 11:26:29;;;;;;;4.07;2.30;;;12.50;59.40;;;;;;4993477;28;20062;-79
2022/04/20 11:28:59;;;;;;;4.43;2.35;;;12.70;59.70;;;;;;4993201;28;20047;-79
2022/04/20 11:31:26;;;;;;;4.00;2.08;;;12.60;58.40;;;;;;4992974;28;20500;-79
2022/04/20 11:33:54;;;;;;;4.13;2.63;;;12.60;57.50;;;;;;4993069;28;20069;-79
2022/04/20 11:36:22;;;;;;;4.50;2.40;;;12.60;57.90;;;;;;4993228;28;20054;-80
2022/04/20 11:38:50;;;;;;;5.55;2.35;;;12.50;57.60;;;;;;4992860;28;20054;-79
2022/04/20 11:41:20;;;;;;;5.75;2.90;;;12.60;56.90;;;;;;4992938;28;20086;-79
2022/04/20 11:43:49;;;;;;;4.32;2.67;;;12.50;54.40;;;;;;4993116;28;20133;-79
2022/04/20 11:46:17;;;;;;;4.50;2.75;;;12.70;57.20;;;;;;4992842;28;20057;-80
2022/04/20 11:48:54;;;;;;;3.72;2.30;;;12.80;57.30;;;;;;4992842;28;20118;-79
2022/04/20 11:51:25;;;;;;;4.50;2.30;;;13.00;56.80;;;;;;4992731;28;20070;-79
2022/04/20 11:53:52;;;;;;;5.63;3.10;;;12.90;56.10;;;;;;4992599;28;20090;-79
2022/04/20 11:56:35;;;;;;;4.53;2.88;;;12.90;56.00;;;;;;4991242;28;20524;-79
2022/04/20 11:59:03;;;;;;;4.35;2.50;;;13.30;58.30;;;;;;4990492;28;20050;-79
2022/04/20 12:01:33;;;;;;;8.10;2.97;;;13.60;56.40;;;;;;4992331;28;20054;-79
2022/04/20 12:04:02;;;;;;;4.95;2.70;;;13.60;56.80;;;;;;4991607;28;20077;-79
2022/04/20 12:06:32;;;;;;;4.45;2.50;;;13.50;54.40;;;;;;4992275;28;20093;-79
2022/04/20 12:08:59;;;;;;;4.00;2.75;;;13.60;54.60;;;;;;4992247;28;20050;-79
2022/04/20 12:11:26;;;;;;;5.57;3.70;;;13.40;54.40;;;;;;4992363;28;20062;-79
2022/04/20 12:13:56;;;;;;;5.22;3.17;;;13.60;55.00;;;;;;4992168;28;20046;-79
2022/04/20 12:16:24;;;;;;;4.88;2.80;;;13.80;55.70;;;;;;4991477;28;20050;-79
2022/04/20 12:18:53;;;;;;;4.18;2.78;;;13.80;54.20;;;;;;4983324;28;20116;-79
2022/04/20 12:21:43;;;;;;;5.68;2.53;;;13.90;53.80;;;;;;4972288;28;20058;-79
2022/04/20 12:24:13;;;;;;;4.22;2.88;;;13.90;53.30;;;;;;4972312;28;20133;-79
2022/04/20 12:26:44;;;;;;;4.28;2.50;;;13.90;53.50;;;;;;4971888;28;20047;-79
2022/04/20 12:29:13;;;;;;;4.13;2.40;;;14.00;54.00;;;;;;4972401;28;20055;-79
2022/04/20 12:31:43;;;;;;;4.60;2.42;;;14.30;53.20;;;;;;4972526;28;20058;-79
2022/04/20 12:34:12;;;;;;;4.18;2.50;;;14.40;52.80;;;;;;4972635;28;20058;-79
2022/04/20 12:36:59;;;;;;;4.15;2.35;;;14.50;53.40;;;;;;4972106;28;20134;-79
2022/04/20 12:39:32;;;;;;;4.15;2.20;;;14.40;52.10;;;;;;4972424;28;20062;-78
2022/04/20 12:42:02;;;;;;;5.05;2.28;;;14.70;51.70;;;;;;4972249;28;20050;-79
2022/04/20 12:44:51;;;;;;;6.18;2.75;;;14.70;51.30;;;;;;4981344;28;20042;-79
2022/04/20 12:47:39;;;;;;;4.53;2.50;;;14.90;50.90;;;;;;4991718;28;20051;-79
2022/04/20 12:50:23;;;;;;;3.67;2.17;;;15.20;51.00;;;;;;4991666;28;20133;-78
2022/04/20 12:52:59;;;;;;;4.75;2.30;;;15.50;49.70;;;;;;4991050;28;20046;-79
2022/04/20 13:02:01;;;;;;;3.65;2.22;;;15.30;49.80;;;;;;4991264;28;20101;-79
2022/04/20 13:04:15;;;;;;;3.53;2.17;;;16.10;47.60;;;;;;4991005;28;20062;-79
2022/04/20 13:06:42;;;;;;;5.22;2.50;;;16.30;46.40;;;;;;4991434;28;20053;-79
2022/04/20 13:09:09;;;;;;;4.00;2.50;;;16.10;46.40;;;;;;4991047;28;20480;-80
2022/04/20 13:11:36;;;;;;;4.10;2.40;;;16.20;45.70;;;;;;4990969;28;20056;-80
2022/04/20 13:14:04;;;;;;;5.32;2.30;;;16.30;46.50;;;;;;4990327;28;20047;-79
2022/04/20 13:16:32;;;;;;;3.63;1.95;;;16.20;47.20;;;;;;4990879;28;20050;-80
2022/04/20 13:19:00;;;;;;;4.20;2.30;;;16.50;46.50;;;;;;4990775;28;20068;-79
2022/04/20 13:21:28;;;;;;;6.03;3.22;;;16.40;45.50;;;;;;4990789;28;20097;-79
2022/04/20 13:23:55;;;;;;;4.90;2.20;;;16.50;46.50;;;;;;4991023;28;20464;-80
2022/04/20 13:29:07;;;;;;;4.03;2.30;;;17.00;45.20;;;;;;4990342;28;20180;-79
2022/04/20 13:31:36;;;;;;;4.97;2.30;;;17.10;45.50;;;;;;4990916;28;20061;-79
2022/04/20 13:34:03;;;;;;;3.50;1.98;;;17.70;44.20;;;;;;4991007;28;20052;-79
2022/04/20 13:36:30;;;;;;;4.20;2.22;;;17.80;44.10;;;;;;4990808;28;20145;-79
2022/04/20 13:38:58;;;;;;;4.22;2.00;;;17.10;43.90;;;;;;4990728;28;20054;-79
2022/04/20 13:41:25;;;;;;;3.50;1.98;;;17.00;44.00;;;;;;4988397;28;20049;-80
2022/04/20 13:43:53;;;;;;;6.43;2.03;;;17.20;44.70;;;;;;4990747;28;20046;-79
2022/04/20 13:46:20;;;;;;;3.70;1.98;;;18.10;43.30;;;;;;4990985;28;20053;-79
2022/04/20 13:48:48;;;;;;;4.40;1.98;;;18.00;43.30;;;;;;4990452;28;20137;-80
2022/04/20 13:51:16;;;;;;;3.42;1.70;;;18.50;43.00;;;;;;4990745;28;20509;-79
2022/04/20 13:53:43;;;;;;;3.88;2.38;;;18.40;42.70;;;;;;4990419;28;20047;-79
2022/04/20 13:56:11;;;;;;;4.82;2.40;;;18.40;41.80;;;;;;4990815;28;20068;-80
2022/04/20 13:58:39;;;;;;;4.07;2.15;;;19.00;41.70;;;;;;4988586;28;20058;-79
2022/04/20 14:01:06;;;;;;;3.80;2.00;;;18.60;40.60;;;;;;4990803;28;20491;-79
2022/04/20 14:03:33;;;;;;;4.38;1.90;;;18.60;42.40;;;;;;4990879;28;20081;-79
2022/04/20 14:06:01;;;;;;;4.75;2.20;;;18.80;41.30;;;;;;4990414;28;20089;-79
2022/04/20 14:08:29;;;;;;;3.72;1.85;;;19.30;41.10;;;;;;4992711;28;20502;-81
2022/04/20 14:10:56;;;;;;;3.83;1.90;;;19.90;42.70;;;;;;4994303;28;20050;-81
2022/04/20 14:13:23;;;;;;;4.65;2.17;;;20.30;42.50;;;;;;4995077;28;20488;-82
2022/04/20 14:15:50;;;;;;;5.13;2.20;;;20.30;42.60;;;;;;4994918;28;20462;-83
2022/04/20 14:18:17;;;;;;;4.93;2.13;;;18.80;40.90;;;;;;4994187;28;20050;-84
2022/04/20 14:20:44;;;;;;;3.55;1.90;;;19.70;42.30;;;;;;4994705;28;20422;-83
2022/04/20 14:23:12;;;;;;;3.35;2.10;;;19.20;40.70;;;;;;4994167;28;20058;-83
2022/04/20 14:34:06;;;;;;;5.82;2.30;;;22.80;36.90;;;;;;4915133;29;20052;-83
2022/04/20 14:36:33;;;;;;;4.47;2.10;;;22.60;36.40;;;;;;4976008;28;20131;-83
2022/04/20 14:39:01;;;;;;;4.30;2.30;;;23.60;34.80;;;;;;4994071;28;20557;-83
2022/04/20 14:41:28;;;;;;;4.57;2.05;;;22.50;35.30;;;;;;4993672;28;20173;-83
2022/04/20 14:43:56;;;;;;;3.88;2.20;;;22.10;36.80;;;;;;4994218;28;20054;-83
2022/04/20 14:46:23;;;;;;;5.78;2.42;;;23.20;35.60;;;;;;4994060;28;20511;-82
2022/04/20 14:48:50;;;;;;;5.57;2.28;;;23.20;35.60;;;;;;4994176;28;20050;-82
2022/04/20 14:51:21;;;;;;;3.95;1.92;;;24.10;33.70;;;;;;4994043;28;20052;-82
2022/04/20 14:53:48;;;;;;;6.65;3.90;;;22.70;36.60;;;;;;4992818;28;20461;-83
2022/04/20 14:56:17;;;;;;;5.38;2.92;;;22.50;35.20;;;;;;4992493;28;20046;-85
2022/04/20 14:58:44;;;;;;;6.75;4.53;;;23.00;35.20;;;;;;4990801;28;20070;-86
2022/04/20 15:01:13;;;;;;;5.80;2.50;;;24.30;36.10;;;;;;4993410;28;20046;-85
2022/04/20 15:03:40;;;;;;;3.42;1.90;;;23.50;34.20;;;;;;4994035;28;20054;-85
2022/04/20 15:06:08;;;;;;;4.25;1.80;;;23.50;35.10;;;;;;4992911;28;20046;-86
2022/04/20 15:08:36;;;;;;;3.30;1.92;;;24.40;34.40;;;;;;4994349;28;20129;-85
2022/04/20 15:11:03;;;;;;;4.22;1.90;;;23.80;33.80;;;;;;4991771;28;20563;-86
2022/04/20 15:13:31;;;;;;;3.33;1.50;;;23.40;34.10;;;;;;4993801;28;20411;-86
2022/04/20 15:15:58;;;;;;;5.57;1.90;;;23.30;33.20;;;;;;4994161;28;20113;-86
2022/04/20 15:18:25;;;;;;;3.75;1.90;;;24.30;33.90;;;;;;4993385;28;20058;-86
2022/04/20 15:20:52;;;;;;;5.80;2.08;;;24.00;32.90;;;;;;4992856;28;20064;-86
2022/04/20 15:23:20;;;;;;;5.28;2.00;;;24.20;33.10;;;;;;4993744;28;20050;-85
2022/04/20 15:25:47;;;;;;;4.40;1.63;;;23.70;33.30;;;;;;4993527;28;20043;-85
2022/04/20 15:28:14;;;;;;;3.10;1.70;;;23.00;33.80;;;;;;4993001;28;20467;-84
2022/04/20 15:30:45;;;;;;;3.88;2.25;;;22.30;34.30;;;;;;4993593;28;20495;-85
2022/04/20 15:33:14;;;;;;;3.70;1.80;;;21.70;35.70;;;;;;4986310;28;20051;-84
2022/04/20 15:35:41;;;;;;;3.67;1.83;;;22.10;35.40;;;;;;4974649;28;20054;-86
2022/04/20 15:38:09;;;;;;;5.07;1.90;;;22.60;34.00;;;;;;4979736;28;20412;-86
2022/04/20 15:40:36;;;;;;;3.90;2.00;;;22.70;34.90;;;;;;4993236;28;20046;-86
2022/04/20 15:43:04;;;;;;;3.00;1.70;;;23.00;34.60;;;;;;4992596;28;20081;-86
2022/04/20 15:45:31;;;;;;;3.53;2.00;;;23.30;35.00;;;;;;4992749;28;20476;-85
2022/04/20 15:47:59;;;;;;;4.10;2.03;;;22.40;35.10;;;;;;4992759;28;20050;-85
2022/04/20 15:50:26;;;;;;;3.22;1.80;;;22.90;34.90;;;;;;4993080;28;20060;-85
2022/04/20 15:52:54;;;;;;;4.90;1.88;;;23.70;33.90;;;;;;4992821;28;20062;-86
2022/04/20 16:00:50;;;;;;;4.47;1.70;;;23.90;33.70;;;;;;4992517;28;20088;-85
2022/04/20 16:03:19;;;;;;;4.15;1.90;;;23.50;33.60;;;;;;4992088;28;20058;-86
2022/04/20 16:05:48;;;;;;;3.95;2.00;;;22.70;34.40;;;;;;4993192;28;20054;-86
2022/04/20 16:08:17;;;;;;;4.07;1.92;;;22.50;34.50;;;;;;4993301;28;20149;-85
2022/04/20 16:10:45;;;;;;;4.55;1.98;;;22.60;34.80;;;;;;4992640;28;20404;-85
2022/04/20 16:13:12;;;;;;;4.32;1.83;;;22.50;34.70;;;;;;4993018;28;20051;-85
2022/04/20 16:15:39;;;;;;;4.05;1.67;;;23.10;35.30;;;;;;4991687;28;20099;-85
2022/04/20 16:18:06;;;;;;;3.78;1.90;;;22.30;34.80;;;;;;4992355;28;20081;-85
2022/04/20 16:20:35;;;;;;;4.35;2.03;;;22.00;35.10;;;;;;4992736;28;20057;-85
2022/04/20 16:23:06;;;;;;;3.30;1.98;;;21.90;35.30;;;;;;4991955;28;20054;-85
2022/04/20 16:25:33;;;;;;;4.03;1.92;;;21.90;35.70;;;;;;4992819;28;20050;-85
2022/04/20 16:28:01;;;;;;;4.30;1.90;;;21.30;36.50;;;;;;4991815;28;20046;-85
2022/04/20 16:30:30;;;;;;;3.30;1.85;;;21.40;35.80;;;;;;4991935;28;20054;-86
2022/04/20 16:32:57;;;;;;;4.45;2.17;;;21.80;37.20;;;;;;4993008;28;20050;-84
2022/04/20 16:35:24;;;;;;;3.67;2.20;;;21.80;35.90;;;;;;4991789;28;20054;-85
2022/04/20 16:37:53;;;;;;;5.38;3.55;;;21.30;35.80;;;;;;4991703;28;20060;-85
2022/04/20 16:40:20;;;;;;;4.20;2.70;;;22.00;35.90;;;;;;4990815;28;20053;-85
2022/04/20 16:42:47;;;;;;;4.82;2.20;;;21.80;35.70;;;;;;4991917;28;20128;-83
2022/04/20 16:45:15;;;;;;;4.07;2.10;;;21.30;36.20;;;;;;4992088;28;20074;-84
2022/04/20 16:47:43;;;;;;;4.97;2.30;;;21.60;36.30;;;;;;4992244;28;20054;-84
2022/04/20 16:50:12;;;;;;;3.35;2.13;;;21.30;36.10;;;;;;4991234;28;20053;-84
2022/04/20 16:52:40;;;;;;;4.38;2.03;;;21.20;35.90;;;;;;4991070;28;20062;-84
2022/04/20 16:55:10;;;;;;;3.08;1.88;;;20.00;36.50;;;;;;4992131;28;20054;-83
2022/04/20 16:57:39;;;;;;;3.78;2.13;;;20.70;36.80;;;;;;4989984;28;20058;-88
2022/04/20 17:00:09;;;;;;;4.38;2.65;;;21.10;36.50;;;;;;4988049;28;20058;-80
2022/04/20 17:02:38;;;;;;;4.57;2.30;;;21.50;36.30;;;;;;4987352;28;20193;-80
2022/04/20 17:05:07;;;;;;;4.85;2.25;;;21.50;37.20;;;;;;4983597;28;20542;-81
2022/04/20 17:07:34;;;;;;;4.93;2.15;;;21.30;36.10;;;;;;4992869;28;20047;-81
2022/04/20 17:10:01;;;;;;;3.40;1.88;;;20.10;36.30;;;;;;4990124;28;20181;-80
2022/04/20 17:12:30;;;;;;;3.60;2.13;;;20.20;37.40;;;;;;4984770;28;20050;-82
2022/04/20 17:14:57;;;;;;;4.13;2.05;;;20.00;37.80;;;;;;4991018;28;20492;-80
2022/04/20 17:17:24;;;;;;;4.45;1.92;;;19.80;37.40;;;;;;4987640;28;20566;-81
2022/04/20 17:19:51;;;;;;;4.05;2.00;;;19.40;38.10;;;;;;4975135;28;20054;-81
2022/04/20 17:27:49;;;;;;;4.10;2.17;;;19.60;37.80;;;;;;4990708;28;20060;-80
2022/04/20 17:30:16;;;;;;;3.92;2.17;;;19.00;38.10;;;;;;4989543;28;20141;-81
2022/04/20 17:32:43;;;;;;;4.70;2.25;;;18.80;38.40;;;;;;4990214;28;20051;-80
2022/04/20 17:37:55;;;;;;;3.63;2.05;;;18.80;38.40;;;;;;4991185;28;20120;-83
2022/04/20 17:40:22;;;;;;;7.13;3.90;;;19.00;38.80;;;;;;4990875;28;20050;-81
2022/04/20 17:42:53;;;;;;;5.97;3.20;;;19.20;39.40;;;;;;4988916;28;20050;-83
2022/04/20 17:45:20;;;;;;;5.15;3.20;;;19.00;38.60;;;;;;4989003;28;20143;-85
2022/04/20 17:47:50;;;;;;;5.00;2.78;;;18.70;38.30;;;;;;4991296;28;20137;-81
2022/04/20 17:50:18;;;;;;;4.00;2.20;;;18.00;39.20;;;;;;4983008;28;20046;-78
2022/04/20 17:52:46;;;;;;;4.40;2.10;;;18.20;39.90;;;;;;4984904;28;20469;-80
2022/04/20 17:55:13;;;;;;;4.95;2.28;;;18.10;39.20;;;;;;4990649;28;20097;-78
2022/04/20 17:57:40;;;;;;;3.35;1.90;;;17.60;39.30;;;;;;4988907;28;20043;-81
2022/04/20 18:00:10;;;;;;;3.67;1.95;;;17.10;39.70;;;;;;4990452;28;20074;-78
2022/04/20 18:02:37;;;;;;;3.17;1.90;;;17.20;40.20;;;;;;4989118;28;20056;-81
2022/04/20 18:05:06;;;;;;;4.05;2.05;;;17.10;40.20;;;;;;4990470;28;20130;-81
2022/04/20 18:07:34;;;;;;;5.75;2.05;;;16.90;40.70;;;;;;4990375;28;20049;-82
2022/04/20 18:10:03;;;;;;;3.67;1.98;;;16.90;40.40;;;;;;4989911;28;20054;-82
2022/04/20 18:12:30;;;;;;;3.92;1.77;;;16.40;40.70;;;;;;4989175;28;20614;-82
2022/04/20 18:14:57;;;;;;;3.78;2.13;;;16.40;42.00;;;;;;4989585;28;20134;-82
2022/04/20 18:17:25;;;;;;;4.90;2.10;;;16.40;41.60;;;;;;4988622;28;20153;-81
2022/04/20 18:19:52;;;;;;;4.75;2.08;;;16.20;41.50;;;;;;4994271;28;20139;-82
2022/04/20 18:22:21;;;;;;;4.35;2.15;;;16.40;41.40;;;;;;4994074;28;20045;-81
2022/04/20 18:24:48;;;;;;;5.18;1.88;;;16.20;42.60;;;;;;4988654;28;20050;-81
2022/04/20 18:27:15;;;;;;;4.20;2.03;;;16.30;42.00;;;;;;4989873;28;20051;-83
2022/04/20 18:29:42;;;;;;;3.65;2.00;;;16.20;43.00;;;;;;4990147;28;20096;-81
2022/04/20 18:32:09;;;;;;;4.10;2.20;;;16.10;42.50;;;;;;4989237;28;20064;-80
2022/04/20 18:34:40;;;;;;;3.80;1.90;;;15.80;43.20;;;;;;4987175;28;20046;-80
2022/04/20 18:37:08;;;;;;;4.18;2.03;;;15.90;45.70;;;;;;4985140;28;20051;-89
2022/04/20 18:39:35;;;;;;;3.72;1.92;;;15.60;44.90;;;;;;4992721;28;20086;-87
2022/04/20 18:42:05;;;;;;;3.33;1.80;;;15.60;46.60;;;;;;4992055;28;20770;-89
2022/04/20 18:44:35;;;;;;;4.47;2.10;;;15.50;46.40;;;;;;4991828;28;20057;-88
2022/04/20 18:47:03;;;;;;;3.45;1.90;;;15.40;46.10;;;;;;4989360;28;20054;-89
2022/04/20 18:49:30;;;;;;;3.58;1.98;;;15.10;46.90;;;;;;4990537;28;20817;-87
2022/04/20 18:52:00;;;;;;;4.30;2.17;;;15.10;46.80;;;;;;4989719;28;20046;-85
2022/04/20 18:59:56;;;;;;;3.95;1.92;;;14.60;47.50;;;;;;4982427;28;20541;-85
2022/04/20 19:02:23;;;;;;;4.50;1.80;;;14.60;47.90;;;;;;4991652;28;20157;-84
2022/04/20 19:04:51;;;;;;;3.80;1.88;;;14.50;47.60;;;;;;4992509;28;20077;-85
2022/04/20 19:07:22;;;;;;;3.50;1.77;;;14.40;47.80;;;;;;4991766;28;20053;-83
2022/04/20 19:09:52;;;;;;;3.72;1.80;;;14.30;47.60;;;;;;4993275;28;20078;-85
2022/04/20 19:12:19;;;;;;;3.33;1.90;;;14.40;48.60;;;;;;4993174;28;20054;-82
2022/04/20 19:14:48;;;;;;;8.65;4.82;;;14.20;48.40;;;;;;4991791;28;20146;-82
2022/04/20 19:17:16;;;;;;;7.68;4.32;;;14.00;48.10;;;;;;4989970;28;20046;-84
2022/04/20 19:19:45;;;;;;;5.97;2.90;;;14.00;49.00;;;;;;4992103;28;20054;-84
2022/04/20 19:22:12;;;;;;;4.60;2.38;;;13.90;49.50;;;;;;4993004;28;20046;-85
2022/04/20 19:24:41;;;;;;;4.65;2.22;;;13.80;50.60;;;;;;4993308;28;20054;-86
2022/04/20 19:27:11;;;;;;;3.60;2.15;;;13.80;50.10;;;;;;4992589;28;20134;-86
2022/04/20 19:29:38;;;;;;;4.43;2.22;;;13.70;50.90;;;;;;4993039;28;20594;-85
2022/04/20 19:32:06;;;;;;;5.18;2.53;;;13.70;50.30;;;;;;4992924;28;20619;-84
2022/04/20 19:34:33;;;;;;;3.95;2.30;;;13.70;50.70;;;;;;4992354;28;20050;-85
2022/04/20 19:37:01;;;;;;;5.18;2.63;;;13.60;50.50;;;;;;4992144;28;20492;-85
2022/04/20 19:39:29;;;;;;;4.07;2.10;;;13.50;50.70;;;;;;4993541;28;20046;-85
2022/04/20 19:41:57;;;;;;;4.45;2.50;;;13.50;50.70;;;;;;4990580;28;20050;-84
2022/04/20 19:44:28;;;;;;;5.32;2.38;;;13.30;52.30;;;;;;4992829;28;20134;-86
2022/04/20 19:46:56;;;;;;;4.78;2.40;;;13.20;51.60;;;;;;4992703;28;20145;-85
2022/04/20 19:49:23;;;;;;;4.30;2.40;;;13.20;52.30;;;;;;4992901;28;20069;-84
2022/04/20 19:51:50;;;;;;;3.88;2.10;;;13.20;52.20;;;;;;4992502;28;20057;-84
2022/04/20 19:54:19;;;;;;;4.15;2.47;;;13.00;51.20;;;;;;4992954;28;20138;-84
2022/04/20 19:56:48;;;;;;;4.25;2.55;;;13.10;51.90;;;;;;4991600;28;20058;-85